sensor_id;sensor_type;location;lat;lon;timestamp;P1;durP1;ratioP1;P2;durP2;ratioP2
19998;SDS011;10160;50.926;4.374;2022-12-05T00:01:50;85.43;;;30.93;;
19998;SDS011;10160;50.926;4.374;2022-12-05T00:04:16;80.43;;;31.07;;
19998;SDS011;10160;50.926;4.374;2022-12-05T00:06:42;82.00;;;31.17;;
19998;SDS011;10160;50.926;4.374;2022-12-05T00:09:08;87.27;;;32.57;;
19998;SDS011;10160;50.926;4.374;2022-12-05T00:11:36;84.80;;;31.50;;
19998;SDS011;10160;50.926;4.374;2022-12-05T00:14:04;83.03;;;30.87;;
19998;SDS011;10160;50.926;4.374;2022-12-05T00:16:33;81.53;;;32.03;;
19998;SDS011;10160;50.926;4.374;2022-12-05T00:19:01;81.30;;;30.47;;
19998;SDS011;10160;50.926;4.374;2022-12-05T00:21:29;93.33;;;32.00;;
19998;SDS011;10160;50.926;4.374;2022-12-05T00:23:56;83.77;;;32.00;;
19998;SDS011;10160;50.926;4.374;2022-12-05T00:26:23;81.87;;;31.20;;
19998;SDS011;10160;50.926;4.374;2022-12-05T00:28:49;82.10;;;30.60;;
19998;SDS011;10160;50.926;4.374;2022-12-05T00:31:18;89.77;;;32.60;;
19998;SDS011;10160;50.926;4.374;2022-12-05T00:33:45;80.60;;;31.63;;
19998;SDS011;10160;50.926;4.374;2022-12-05T00:36:12;84.40;;;31.50;;
19998;SDS011;10160;50.926;4.374;2022-12-05T00:38:40;84.50;;;29.93;;
19998;SDS011;10160;50.926;4.374;2022-12-05T00:41:13;84.57;;;30.87;;
19998;SDS011;10160;50.926;4.374;2022-12-05T00:43:41;92.83;;;32.07;;
19998;SDS011;10160;50.926;4.374;2022-12-05T00:46:08;88.00;;;31.43;;
19998;SDS011;10160;50.926;4.374;2022-12-05T00:48:36;79.07;;;30.37;;
19998;SDS011;10160;50.926;4.374;2022-12-05T00:51:03;74.90;;;30.57;;
19998;SDS011;10160;50.926;4.374;2022-12-05T00:53:29;76.70;;;30.33;;
19998;SDS011;10160;50.926;4.374;2022-12-05T00:56:00;76.20;;;30.80;;
19998;SDS011;10160;50.926;4.374;2022-12-05T00:58:26;88.17;;;29.97;;
19998;SDS011;10160;50.926;4.374;2022-12-05T01:00:52;76.57;;;30.17;;
19998;SDS011;10160;50.926;4.374;2022-12-05T01:03:18;79.93;;;29.80;;
19998;SDS011;10160;50.926;4.374;2022-12-05T01:05:43;76.60;;;30.00;;
19998;SDS011;10160;50.926;4.374;2022-12-05T01:08:09;81.60;;;30.97;;
19998;SDS011;10160;50.926;4.374;2022-12-05T01:10:34;76.67;;;29.40;;
19998;SDS011;10160;50.926;4.374;2022-12-05T01:13:00;79.73;;;27.90;;
19998;SDS011;10160;50.926;4.374;2022-12-05T01:15:25;76.10;;;29.47;;
19998;SDS011;10160;50.926;4.374;2022-12-05T01:17:51;82.07;;;29.07;;
19998;SDS011;10160;50.926;4.374;2022-12-05T01:20:17;83.97;;;29.43;;
19998;SDS011;10160;50.926;4.374;2022-12-05T01:22:42;81.43;;;30.00;;
19998;SDS011;10160;50.926;4.374;2022-12-05T01:25:08;69.10;;;29.00;;
19998;SDS011;10160;50.926;4.374;2022-12-05T01:27:33;83.03;;;29.60;;
19998;SDS011;10160;50.926;4.374;2022-12-05T01:29:59;68.83;;;29.53;;
19998;SDS011;10160;50.926;4.374;2022-12-05T01:32:25;73.90;;;29.67;;
19998;SDS011;10160;50.926;4.374;2022-12-05T01:34:51;72.23;;;29.63;;
19998;SDS011;10160;50.926;4.374;2022-12-05T01:37:16;80.27;;;27.67;;
19998;SDS011;10160;50.926;4.374;2022-12-05T01:39:42;78.70;;;28.37;;
19998;SDS011;10160;50.926;4.374;2022-12-05T01:42:10;72.57;;;28.20;;
19998;SDS011;10160;50.926;4.374;2022-12-05T01:47:02;73.13;;;27.97;;
19998;SDS011;10160;50.926;4.374;2022-12-05T01:52:09;68.77;;;28.23;;
19998;SDS011;10160;50.926;4.374;2022-12-05T01:54:38;77.47;;;28.67;;
19998;SDS011;10160;50.926;4.374;2022-12-05T01:57:05;73.57;;;28.57;;
19998;SDS011;10160;50.926;4.374;2022-12-05T01:59:36;76.97;;;28.07;;
19998;SDS011;10160;50.926;4.374;2022-12-05T02:02:05;72.40;;;29.83;;
19998;SDS011;10160;50.926;4.374;2022-12-05T02:04:34;72.60;;;28.93;;
19998;SDS011;10160;50.926;4.374;2022-12-05T02:07:02;76.57;;;27.97;;
19998;SDS011;10160;50.926;4.374;2022-12-05T02:09:28;84.70;;;29.87;;
19998;SDS011;10160;50.926;4.374;2022-12-05T02:11:57;78.53;;;29.40;;
19998;SDS011;10160;50.926;4.374;2022-12-05T02:17:24;80.57;;;30.07;;
19998;SDS011;10160;50.926;4.374;2022-12-05T02:30:20;75.73;;;29.23;;
19998;SDS011;10160;50.926;4.374;2022-12-05T02:46:22;76.87;;;29.40;;
19998;SDS011;10160;50.926;4.374;2022-12-05T02:48:50;79.13;;;29.27;;
19998;SDS011;10160;50.926;4.374;2022-12-05T02:51:21;78.53;;;28.80;;
19998;SDS011;10160;50.926;4.374;2022-12-05T02:53:49;73.10;;;29.27;;
19998;SDS011;10160;50.926;4.374;2022-12-05T02:56:16;77.77;;;29.83;;
19998;SDS011;10160;50.926;4.374;2022-12-05T02:58:44;85.63;;;29.60;;
19998;SDS011;10160;50.926;4.374;2022-12-05T03:01:16;90.83;;;30.37;;
19998;SDS011;10160;50.926;4.374;2022-12-05T03:03:44;87.47;;;28.83;;
19998;SDS011;10160;50.926;4.374;2022-12-05T03:06:14;77.53;;;29.67;;
19998;SDS011;10160;50.926;4.374;2022-12-05T03:09:07;77.07;;;28.27;;
19998;SDS011;10160;50.926;4.374;2022-12-05T03:11:41;74.37;;;28.77;;
19998;SDS011;10160;50.926;4.374;2022-12-05T03:14:23;84.33;;;28.03;;
19998;SDS011;10160;50.926;4.374;2022-12-05T03:16:53;73.67;;;28.77;;
19998;SDS011;10160;50.926;4.374;2022-12-05T03:19:25;71.07;;;26.77;;
19998;SDS011;10160;50.926;4.374;2022-12-05T03:25:04;75.17;;;28.53;;
19998;SDS011;10160;50.926;4.374;2022-12-05T03:30:17;77.63;;;27.63;;
19998;SDS011;10160;50.926;4.374;2022-12-05T03:33:19;80.30;;;29.63;;
19998;SDS011;10160;50.926;4.374;2022-12-05T03:38:48;72.23;;;28.40;;
19998;SDS011;10160;50.926;4.374;2022-12-05T03:41:29;65.90;;;26.23;;
19998;SDS011;10160;50.926;4.374;2022-12-05T03:46:49;77.97;;;27.70;;
19998;SDS011;10160;50.926;4.374;2022-12-05T03:49:21;78.63;;;28.07;;
19998;SDS011;10160;50.926;4.374;2022-12-05T03:51:55;72.73;;;27.13;;
19998;SDS011;10160;50.926;4.374;2022-12-05T03:54:35;70.70;;;27.27;;
19998;SDS011;10160;50.926;4.374;2022-12-05T03:57:32;82.27;;;28.67;;
19998;SDS011;10160;50.926;4.374;2022-12-05T04:00:05;69.97;;;26.57;;
19998;SDS011;10160;50.926;4.374;2022-12-05T04:05:11;57.90;;;25.43;;
19998;SDS011;10160;50.926;4.374;2022-12-05T04:07:48;72.80;;;28.17;;
19998;SDS011;10160;50.926;4.374;2022-12-05T04:10:22;75.80;;;27.13;;
19998;SDS011;10160;50.926;4.374;2022-12-05T04:12:54;65.67;;;26.67;;
19998;SDS011;10160;50.926;4.374;2022-12-05T04:15:24;70.43;;;27.73;;
19998;SDS011;10160;50.926;4.374;2022-12-05T04:18:13;71.10;;;27.30;;
19998;SDS011;10160;50.926;4.374;2022-12-05T04:20:43;67.43;;;26.13;;
19998;SDS011;10160;50.926;4.374;2022-12-05T04:23:30;66.97;;;26.80;;
19998;SDS011;10160;50.926;4.374;2022-12-05T04:26:12;69.20;;;26.43;;
19998;SDS011;10160;50.926;4.374;2022-12-05T04:28:48;63.80;;;25.83;;
19998;SDS011;10160;50.926;4.374;2022-12-05T04:31:32;65.17;;;25.83;;
19998;SDS011;10160;50.926;4.374;2022-12-05T04:34:05;67.80;;;25.50;;
19998;SDS011;10160;50.926;4.374;2022-12-05T04:36:53;71.57;;;26.93;;
19998;SDS011;10160;50.926;4.374;2022-12-05T04:39:50;65.67;;;26.27;;
19998;SDS011;10160;50.926;4.374;2022-12-05T04:42:30;64.37;;;25.20;;
19998;SDS011;10160;50.926;4.374;2022-12-05T04:45:01;63.27;;;24.93;;
19998;SDS011;10160;50.926;4.374;2022-12-05T04:47:33;66.87;;;27.60;;
19998;SDS011;10160;50.926;4.374;2022-12-05T04:50:03;59.20;;;25.03;;
19998;SDS011;10160;50.926;4.374;2022-12-05T04:52:31;68.90;;;27.43;;
19998;SDS011;10160;50.926;4.374;2022-12-05T04:55:01;65.00;;;26.20;;
19998;SDS011;10160;50.926;4.374;2022-12-05T05:00:28;72.33;;;26.80;;
19998;SDS011;10160;50.926;4.374;2022-12-05T05:03:13;66.73;;;27.20;;
19998;SDS011;10160;50.926;4.374;2022-12-05T05:06:01;75.67;;;26.80;;
19998;SDS011;10160;50.926;4.374;2022-12-05T05:08:28;70.07;;;27.10;;
19998;SDS011;10160;50.926;4.374;2022-12-05T05:11:15;65.00;;;26.83;;
19998;SDS011;10160;50.926;4.374;2022-12-05T05:13:41;72.87;;;27.43;;
19998;SDS011;10160;50.926;4.374;2022-12-05T05:16:11;69.10;;;27.43;;
19998;SDS011;10160;50.926;4.374;2022-12-05T05:18:42;73.53;;;29.30;;
19998;SDS011;10160;50.926;4.374;2022-12-05T05:21:30;71.80;;;27.73;;
19998;SDS011;10160;50.926;4.374;2022-12-05T05:23:56;78.57;;;29.13;;
19998;SDS011;10160;50.926;4.374;2022-12-05T05:26:23;61.47;;;26.30;;
19998;SDS011;10160;50.926;4.374;2022-12-05T05:28:50;73.67;;;28.93;;
19998;SDS011;10160;50.926;4.374;2022-12-05T05:31:16;68.43;;;27.37;;
19998;SDS011;10160;50.926;4.374;2022-12-05T05:33:43;69.10;;;27.37;;
19998;SDS011;10160;50.926;4.374;2022-12-05T05:36:12;63.50;;;26.40;;
19998;SDS011;10160;50.926;4.374;2022-12-05T05:38:42;71.97;;;27.50;;
19998;SDS011;10160;50.926;4.374;2022-12-05T05:41:13;65.60;;;27.90;;
19998;SDS011;10160;50.926;4.374;2022-12-05T05:43:48;69.47;;;26.83;;
19998;SDS011;10160;50.926;4.374;2022-12-05T05:46:16;71.97;;;26.97;;
19998;SDS011;10160;50.926;4.374;2022-12-05T05:48:43;76.60;;;28.50;;
19998;SDS011;10160;50.926;4.374;2022-12-05T05:51:09;72.80;;;28.10;;
19998;SDS011;10160;50.926;4.374;2022-12-05T05:53:36;74.30;;;28.50;;
19998;SDS011;10160;50.926;4.374;2022-12-05T05:56:03;71.10;;;27.90;;
19998;SDS011;10160;50.926;4.374;2022-12-05T05:58:29;80.37;;;29.73;;
19998;SDS011;10160;50.926;4.374;2022-12-05T06:01:01;69.50;;;29.57;;
19998;SDS011;10160;50.926;4.374;2022-12-05T06:03:31;79.87;;;29.17;;
19998;SDS011;10160;50.926;4.374;2022-12-05T06:05:57;72.77;;;28.93;;
19998;SDS011;10160;50.926;4.374;2022-12-05T06:08:24;77.13;;;29.90;;
19998;SDS011;10160;50.926;4.374;2022-12-05T06:10:50;76.70;;;28.50;;
19998;SDS011;10160;50.926;4.374;2022-12-05T06:13:15;70.20;;;28.67;;
19998;SDS011;10160;50.926;4.374;2022-12-05T06:15:41;72.67;;;29.13;;
19998;SDS011;10160;50.926;4.374;2022-12-05T06:18:06;73.83;;;28.40;;
19998;SDS011;10160;50.926;4.374;2022-12-05T06:20:32;75.20;;;28.90;;
19998;SDS011;10160;50.926;4.374;2022-12-05T06:22:57;75.83;;;29.67;;
19998;SDS011;10160;50.926;4.374;2022-12-05T06:25:23;70.13;;;28.23;;
19998;SDS011;10160;50.926;4.374;2022-12-05T06:27:49;75.73;;;30.07;;
19998;SDS011;10160;50.926;4.374;2022-12-05T06:30:15;75.90;;;30.17;;
19998;SDS011;10160;50.926;4.374;2022-12-05T06:32:40;80.57;;;29.17;;
19998;SDS011;10160;50.926;4.374;2022-12-05T06:35:06;73.13;;;30.03;;
19998;SDS011;10160;50.926;4.374;2022-12-05T06:37:39;71.47;;;28.67;;
19998;SDS011;10160;50.926;4.374;2022-12-05T06:40:09;77.73;;;30.10;;
19998;SDS011;10160;50.926;4.374;2022-12-05T06:42:39;70.13;;;28.00;;
19998;SDS011;10160;50.926;4.374;2022-12-05T06:45:05;71.43;;;28.60;;
19998;SDS011;10160;50.926;4.374;2022-12-05T06:47:31;67.77;;;28.23;;
19998;SDS011;10160;50.926;4.374;2022-12-05T06:49:57;71.07;;;29.73;;
19998;SDS011;10160;50.926;4.374;2022-12-05T06:52:22;68.93;;;27.13;;
19998;SDS011;10160;50.926;4.374;2022-12-05T06:54:48;74.20;;;28.33;;
19998;SDS011;10160;50.926;4.374;2022-12-05T06:57:14;67.43;;;28.60;;
19998;SDS011;10160;50.926;4.374;2022-12-05T06:59:40;68.57;;;27.30;;
19998;SDS011;10160;50.926;4.374;2022-12-05T07:02:06;68.10;;;28.13;;
19998;SDS011;10160;50.926;4.374;2022-12-05T07:04:33;70.83;;;26.80;;
19998;SDS011;10160;50.926;4.374;2022-12-05T07:06:59;71.43;;;28.47;;
19998;SDS011;10160;50.926;4.374;2022-12-05T07:09:27;73.80;;;28.60;;
19998;SDS011;10160;50.926;4.374;2022-12-05T07:12:12;73.33;;;28.03;;
19998;SDS011;10160;50.926;4.374;2022-12-05T07:14:40;69.70;;;27.70;;
19998;SDS011;10160;50.926;4.374;2022-12-05T07:17:06;74.97;;;28.30;;
19998;SDS011;10160;50.926;4.374;2022-12-05T07:19:32;69.53;;;28.17;;
19998;SDS011;10160;50.926;4.374;2022-12-05T07:21:58;76.67;;;27.83;;
19998;SDS011;10160;50.926;4.374;2022-12-05T07:24:23;67.07;;;27.63;;
19998;SDS011;10160;50.926;4.374;2022-12-05T07:26:49;68.83;;;29.43;;
19998;SDS011;10160;50.926;4.374;2022-12-05T07:29:15;71.73;;;28.43;;
19998;SDS011;10160;50.926;4.374;2022-12-05T07:31:41;69.03;;;29.67;;
19998;SDS011;10160;50.926;4.374;2022-12-05T07:34:07;73.57;;;28.03;;
19998;SDS011;10160;50.926;4.374;2022-12-05T07:36:33;71.80;;;28.03;;
19998;SDS011;10160;50.926;4.374;2022-12-05T07:38:59;73.33;;;29.07;;
19998;SDS011;10160;50.926;4.374;2022-12-05T07:41:25;77.73;;;30.37;;
19998;SDS011;10160;50.926;4.374;2022-12-05T07:43:54;68.70;;;29.27;;
19998;SDS011;10160;50.926;4.374;2022-12-05T07:46:21;83.70;;;28.70;;
19998;SDS011;10160;50.926;4.374;2022-12-05T07:48:48;75.77;;;27.47;;
19998;SDS011;10160;50.926;4.374;2022-12-05T07:51:14;73.90;;;29.07;;
19998;SDS011;10160;50.926;4.374;2022-12-05T07:53:40;76.23;;;28.50;;
19998;SDS011;10160;50.926;4.374;2022-12-05T07:56:08;78.17;;;29.60;;
19998;SDS011;10160;50.926;4.374;2022-12-05T07:58:39;72.37;;;27.50;;
19998;SDS011;10160;50.926;4.374;2022-12-05T08:01:05;72.30;;;28.30;;
19998;SDS011;10160;50.926;4.374;2022-12-05T08:03:33;77.60;;;28.80;;
19998;SDS011;10160;50.926;4.374;2022-12-05T08:06:05;66.43;;;27.10;;
19998;SDS011;10160;50.926;4.374;2022-12-05T08:08:41;73.07;;;28.17;;
19998;SDS011;10160;50.926;4.374;2022-12-05T08:14:04;66.40;;;27.60;;
19998;SDS011;10160;50.926;4.374;2022-12-05T08:16:31;62.27;;;26.60;;
19998;SDS011;10160;50.926;4.374;2022-12-05T08:19:02;67.63;;;26.63;;
19998;SDS011;10160;50.926;4.374;2022-12-05T08:21:29;68.10;;;25.60;;
19998;SDS011;10160;50.926;4.374;2022-12-05T08:23:55;70.83;;;27.67;;
19998;SDS011;10160;50.926;4.374;2022-12-05T08:26:28;59.47;;;26.10;;
19998;SDS011;10160;50.926;4.374;2022-12-05T08:29:02;64.83;;;25.73;;
19998;SDS011;10160;50.926;4.374;2022-12-05T08:31:31;63.73;;;26.10;;
19998;SDS011;10160;50.926;4.374;2022-12-05T08:33:58;63.33;;;26.13;;
19998;SDS011;10160;50.926;4.374;2022-12-05T08:36:28;69.50;;;26.57;;
19998;SDS011;10160;50.926;4.374;2022-12-05T08:38:55;69.23;;;26.90;;
19998;SDS011;10160;50.926;4.374;2022-12-05T08:41:25;65.80;;;27.07;;
19998;SDS011;10160;50.926;4.374;2022-12-05T08:43:54;63.73;;;27.27;;
19998;SDS011;10160;50.926;4.374;2022-12-05T08:46:20;65.47;;;26.97;;
19998;SDS011;10160;50.926;4.374;2022-12-05T08:48:46;60.37;;;26.37;;
19998;SDS011;10160;50.926;4.374;2022-12-05T08:51:12;69.80;;;26.57;;
19998;SDS011;10160;50.926;4.374;2022-12-05T08:53:38;60.50;;;27.37;;
19998;SDS011;10160;50.926;4.374;2022-12-05T08:56:05;66.07;;;25.43;;
19998;SDS011;10160;50.926;4.374;2022-12-05T08:58:32;65.37;;;26.43;;
19998;SDS011;10160;50.926;4.374;2022-12-05T09:01:11;63.63;;;25.30;;
19998;SDS011;10160;50.926;4.374;2022-12-05T09:03:38;61.23;;;25.43;;
19998;SDS011;10160;50.926;4.374;2022-12-05T09:08:34;57.80;;;25.33;;
19998;SDS011;10160;50.926;4.374;2022-12-05T09:11:03;62.37;;;25.93;;
19998;SDS011;10160;50.926;4.374;2022-12-05T09:13:33;61.90;;;26.13;;
19998;SDS011;10160;50.926;4.374;2022-12-05T09:16:03;61.87;;;25.83;;
19998;SDS011;10160;50.926;4.374;2022-12-05T09:18:30;70.63;;;26.47;;
19998;SDS011;10160;50.926;4.374;2022-12-05T09:20:56;55.80;;;24.07;;
19998;SDS011;10160;50.926;4.374;2022-12-05T09:23:22;56.83;;;25.30;;
19998;SDS011;10160;50.926;4.374;2022-12-05T09:25:53;57.37;;;24.27;;
19998;SDS011;10160;50.926;4.374;2022-12-05T09:28:22;57.60;;;24.87;;
19998;SDS011;10160;50.926;4.374;2022-12-05T09:31:04;56.73;;;22.53;;
19998;SDS011;10160;50.926;4.374;2022-12-05T09:33:35;52.37;;;22.43;;
19998;SDS011;10160;50.926;4.374;2022-12-05T09:36:05;49.93;;;23.47;;
19998;SDS011;10160;50.926;4.374;2022-12-05T09:38:41;55.90;;;24.00;;
19998;SDS011;10160;50.926;4.374;2022-12-05T09:41:13;50.43;;;22.73;;
19998;SDS011;10160;50.926;4.374;2022-12-05T09:43:57;51.00;;;22.83;;
19998;SDS011;10160;50.926;4.374;2022-12-05T09:46:29;53.27;;;23.00;;
19998;SDS011;10160;50.926;4.374;2022-12-05T09:48:58;54.87;;;22.77;;
19998;SDS011;10160;50.926;4.374;2022-12-05T09:51:26;51.90;;;22.63;;
19998;SDS011;10160;50.926;4.374;2022-12-05T09:53:52;55.23;;;23.47;;
19998;SDS011;10160;50.926;4.374;2022-12-05T09:56:26;48.53;;;22.43;;
19998;SDS011;10160;50.926;4.374;2022-12-05T09:58:55;50.73;;;21.07;;
19998;SDS011;10160;50.926;4.374;2022-12-05T10:04:28;48.00;;;21.30;;
19998;SDS011;10160;50.926;4.374;2022-12-05T10:12:56;48.90;;;21.77;;
19998;SDS011;10160;50.926;4.374;2022-12-05T10:15:51;49.43;;;22.07;;
19998;SDS011;10160;50.926;4.374;2022-12-05T10:18:26;47.47;;;22.70;;
19998;SDS011;10160;50.926;4.374;2022-12-05T10:21:08;43.57;;;20.30;;
19998;SDS011;10160;50.926;4.374;2022-12-05T10:23:40;43.43;;;21.27;;
19998;SDS011;10160;50.926;4.374;2022-12-05T10:26:35;44.00;;;20.47;;
19998;SDS011;10160;50.926;4.374;2022-12-05T10:29:27;51.80;;;22.90;;
19998;SDS011;10160;50.926;4.374;2022-12-05T10:32:05;44.93;;;21.27;;
19998;SDS011;10160;50.926;4.374;2022-12-05T10:34:41;42.13;;;21.70;;
19998;SDS011;10160;50.926;4.374;2022-12-05T10:37:14;43.77;;;21.23;;
19998;SDS011;10160;50.926;4.374;2022-12-05T10:39:41;43.53;;;20.83;;
19998;SDS011;10160;50.926;4.374;2022-12-05T10:42:11;42.70;;;20.33;;
19998;SDS011;10160;50.926;4.374;2022-12-05T10:44:47;44.67;;;21.07;;
19998;SDS011;10160;50.926;4.374;2022-12-05T10:47:19;41.67;;;20.53;;
19998;SDS011;10160;50.926;4.374;2022-12-05T10:49:44;42.67;;;20.30;;
19998;SDS011;10160;50.926;4.374;2022-12-05T10:52:11;45.63;;;20.50;;
19998;SDS011;10160;50.926;4.374;2022-12-05T10:54:41;41.63;;;20.13;;
19998;SDS011;10160;50.926;4.374;2022-12-05T10:57:22;41.00;;;20.03;;
19998;SDS011;10160;50.926;4.374;2022-12-05T10:59:49;38.77;;;19.87;;
19998;SDS011;10160;50.926;4.374;2022-12-05T11:02:25;36.10;;;18.57;;
19998;SDS011;10160;50.926;4.374;2022-12-05T11:04:54;46.03;;;18.67;;
19998;SDS011;10160;50.926;4.374;2022-12-05T11:07:31;39.43;;;19.60;;
19998;SDS011;10160;50.926;4.374;2022-12-05T11:09:59;38.83;;;19.97;;
19998;SDS011;10160;50.926;4.374;2022-12-05T11:12:29;38.37;;;19.63;;
19998;SDS011;10160;50.926;4.374;2022-12-05T11:17:40;39.60;;;19.43;;
19998;SDS011;10160;50.926;4.374;2022-12-05T11:20:48;39.73;;;19.17;;
19998;SDS011;10160;50.926;4.374;2022-12-05T11:22:55;42.00;;;19.57;;
19998;SDS011;10160;50.926;4.374;2022-12-05T11:25:30;43.20;;;20.53;;
19998;SDS011;10160;50.926;4.374;2022-12-05T11:27:59;37.97;;;19.40;;
19998;SDS011;10160;50.926;4.374;2022-12-05T11:30:40;39.13;;;19.33;;
19998;SDS011;10160;50.926;4.374;2022-12-05T11:33:25;32.60;;;18.87;;
19998;SDS011;10160;50.926;4.374;2022-12-05T11:35:52;36.57;;;18.70;;
19998;SDS011;10160;50.926;4.374;2022-12-05T11:38:21;36.07;;;18.53;;
19998;SDS011;10160;50.926;4.374;2022-12-05T11:59:55;32.20;;;17.93;;
19998;SDS011;10160;50.926;4.374;2022-12-05T12:30:16;30.93;;;16.87;;
19998;SDS011;10160;50.926;4.374;2022-12-05T12:35:30;32.40;;;17.67;;
19998;SDS011;10160;50.926;4.374;2022-12-05T12:38:08;31.23;;;16.60;;
19998;SDS011;10160;50.926;4.374;2022-12-05T12:51:51;31.83;;;17.00;;
19998;SDS011;10160;50.926;4.374;2022-12-05T12:59:57;32.57;;;16.93;;
19998;SDS011;10160;50.926;4.374;2022-12-05T13:02:26;33.87;;;18.03;;
19998;SDS011;10160;50.926;4.374;2022-12-05T13:07:33;29.93;;;16.60;;
19998;SDS011;10160;50.926;4.374;2022-12-05T13:12:36;30.73;;;16.73;;
19998;SDS011;10160;50.926;4.374;2022-12-05T13:15:10;29.93;;;17.00;;
19998;SDS011;10160;50.926;4.374;2022-12-05T13:17:40;33.07;;;17.53;;
19998;SDS011;10160;50.926;4.374;2022-12-05T13:20:13;31.00;;;16.83;;
19998;SDS011;10160;50.926;4.374;2022-12-05T13:22:44;31.43;;;17.47;;
19998;SDS011;10160;50.926;4.374;2022-12-05T13:25:14;34.70;;;18.17;;
19998;SDS011;10160;50.926;4.374;2022-12-05T13:27:51;33.80;;;18.30;;
19998;SDS011;10160;50.926;4.374;2022-12-05T13:30:19;31.83;;;17.00;;
19998;SDS011;10160;50.926;4.374;2022-12-05T13:32:45;31.87;;;17.43;;
19998;SDS011;10160;50.926;4.374;2022-12-05T13:35:11;31.30;;;17.27;;
19998;SDS011;10160;50.926;4.374;2022-12-05T13:38:02;31.87;;;17.40;;
19998;SDS011;10160;50.926;4.374;2022-12-05T13:40:50;34.00;;;18.53;;
19998;SDS011;10160;50.926;4.374;2022-12-05T13:43:40;36.40;;;17.73;;
19998;SDS011;10160;50.926;4.374;2022-12-05T13:46:25;32.93;;;17.77;;
19998;SDS011;10160;50.926;4.374;2022-12-05T13:48:58;43.10;;;18.50;;
19998;SDS011;10160;50.926;4.374;2022-12-05T13:51:32;32.43;;;17.57;;
19998;SDS011;10160;50.926;4.374;2022-12-05T13:54:09;32.83;;;17.43;;
19998;SDS011;10160;50.926;4.374;2022-12-05T13:56:52;33.90;;;17.90;;
19998;SDS011;10160;50.926;4.374;2022-12-05T14:07:46;34.20;;;19.03;;
19998;SDS011;10160;50.926;4.374;2022-12-05T14:11:05;36.03;;;18.53;;
19998;SDS011;10160;50.926;4.374;2022-12-05T14:15:40;31.97;;;17.90;;
19998;SDS011;10160;50.926;4.374;2022-12-05T14:21:07;37.63;;;19.00;;
19998;SDS011;10160;50.926;4.374;2022-12-05T14:34:54;39.53;;;21.20;;
19998;SDS011;10160;50.926;4.374;2022-12-05T14:37:39;41.27;;;20.47;;
19998;SDS011;10160;50.926;4.374;2022-12-05T14:40:29;38.93;;;21.07;;
19998;SDS011;10160;50.926;4.374;2022-12-05T14:45:57;35.57;;;19.40;;
19998;SDS011;10160;50.926;4.374;2022-12-05T14:50:57;42.43;;;20.93;;
19998;SDS011;10160;50.926;4.374;2022-12-05T14:53:34;40.53;;;20.03;;
19998;SDS011;10160;50.926;4.374;2022-12-05T14:56:09;42.93;;;20.87;;
19998;SDS011;10160;50.926;4.374;2022-12-05T14:58:52;41.97;;;21.70;;
19998;SDS011;10160;50.926;4.374;2022-12-05T15:01:33;41.23;;;22.77;;
19998;SDS011;10160;50.926;4.374;2022-12-05T15:06:54;46.53;;;22.77;;
19998;SDS011;10160;50.926;4.374;2022-12-05T15:12:26;42.17;;;22.70;;
19998;SDS011;10160;50.926;4.374;2022-12-05T15:15:12;40.90;;;22.27;;
19998;SDS011;10160;50.926;4.374;2022-12-05T15:17:58;51.33;;;23.60;;
19998;SDS011;10160;50.926;4.374;2022-12-05T15:23:37;50.17;;;22.37;;
19998;SDS011;10160;50.926;4.374;2022-12-05T15:31:29;47.57;;;24.37;;
19998;SDS011;10160;50.926;4.374;2022-12-05T15:33:57;49.17;;;23.33;;
19998;SDS011;10160;50.926;4.374;2022-12-05T15:36:32;54.03;;;24.10;;
19998;SDS011;10160;50.926;4.374;2022-12-05T15:39:02;54.97;;;24.47;;
19998;SDS011;10160;50.926;4.374;2022-12-05T15:41:29;45.83;;;24.17;;
19998;SDS011;10160;50.926;4.374;2022-12-05T15:43:56;52.13;;;24.50;;
19998;SDS011;10160;50.926;4.374;2022-12-05T15:46:25;50.40;;;24.17;;
19998;SDS011;10160;50.926;4.374;2022-12-05T15:48:58;53.57;;;25.00;;
19998;SDS011;10160;50.926;4.374;2022-12-05T15:51:39;48.30;;;24.53;;
19998;SDS011;10160;50.926;4.374;2022-12-05T15:54:19;57.30;;;26.80;;
19998;SDS011;10160;50.926;4.374;2022-12-05T15:56:57;48.17;;;24.67;;
19998;SDS011;10160;50.926;4.374;2022-12-05T15:59:37;48.37;;;25.03;;
19998;SDS011;10160;50.926;4.374;2022-12-05T16:02:12;49.60;;;25.43;;
19998;SDS011;10160;50.926;4.374;2022-12-05T16:04:46;55.10;;;25.53;;
19998;SDS011;10160;50.926;4.374;2022-12-05T16:07:16;49.17;;;25.17;;
19998;SDS011;10160;50.926;4.374;2022-12-05T16:09:44;48.30;;;25.00;;
19998;SDS011;10160;50.926;4.374;2022-12-05T16:12:30;52.80;;;26.03;;
19998;SDS011;10160;50.926;4.374;2022-12-05T16:14:59;56.17;;;26.30;;
19998;SDS011;10160;50.926;4.374;2022-12-05T16:17:28;53.57;;;23.90;;
19998;SDS011;10160;50.926;4.374;2022-12-05T16:20:19;53.93;;;25.73;;
19998;SDS011;10160;50.926;4.374;2022-12-05T16:22:48;55.27;;;25.20;;
19998;SDS011;10160;50.926;4.374;2022-12-05T16:25:17;50.03;;;24.40;;
19998;SDS011;10160;50.926;4.374;2022-12-05T16:28:34;52.23;;;25.67;;
19998;SDS011;10160;50.926;4.374;2022-12-05T16:30:55;53.57;;;25.27;;
19998;SDS011;10160;50.926;4.374;2022-12-05T16:33:27;50.40;;;25.60;;
19998;SDS011;10160;50.926;4.374;2022-12-05T16:35:54;56.87;;;24.53;;
19998;SDS011;10160;50.926;4.374;2022-12-05T16:38:23;52.50;;;25.53;;
19998;SDS011;10160;50.926;4.374;2022-12-05T16:41:00;56.67;;;25.37;;
19998;SDS011;10160;50.926;4.374;2022-12-05T16:48:38;56.93;;;27.97;;
19998;SDS011;10160;50.926;4.374;2022-12-05T16:51:18;53.97;;;25.37;;
19998;SDS011;10160;50.926;4.374;2022-12-05T16:53:47;57.17;;;26.67;;
19998;SDS011;10160;50.926;4.374;2022-12-05T16:56:16;57.23;;;27.47;;
19998;SDS011;10160;50.926;4.374;2022-12-05T16:58:45;56.53;;;26.40;;
19998;SDS011;10160;50.926;4.374;2022-12-05T17:01:18;56.30;;;27.40;;
19998;SDS011;10160;50.926;4.374;2022-12-05T17:03:46;50.37;;;25.40;;
19998;SDS011;10160;50.926;4.374;2022-12-05T17:06:12;54.90;;;26.37;;
19998;SDS011;10160;50.926;4.374;2022-12-05T17:08:39;50.07;;;25.77;;
19998;SDS011;10160;50.926;4.374;2022-12-05T17:11:06;53.57;;;25.90;;
19998;SDS011;10160;50.926;4.374;2022-12-05T17:13:39;49.00;;;24.80;;
19998;SDS011;10160;50.926;4.374;2022-12-05T17:16:05;50.80;;;25.80;;
19998;SDS011;10160;50.926;4.374;2022-12-05T17:18:31;49.07;;;25.43;;
19998;SDS011;10160;50.926;4.374;2022-12-05T17:20:58;53.80;;;25.80;;
19998;SDS011;10160;50.926;4.374;2022-12-05T17:23:26;52.77;;;26.27;;
19998;SDS011;10160;50.926;4.374;2022-12-05T17:25:55;51.57;;;25.97;;
19998;SDS011;10160;50.926;4.374;2022-12-05T17:28:25;54.07;;;26.60;;
19998;SDS011;10160;50.926;4.374;2022-12-05T17:30:51;51.83;;;25.93;;
19998;SDS011;10160;50.926;4.374;2022-12-05T17:33:17;54.30;;;26.30;;
19998;SDS011;10160;50.926;4.374;2022-12-05T17:35:43;51.10;;;24.73;;
19998;SDS011;10160;50.926;4.374;2022-12-05T17:38:09;54.73;;;25.23;;
19998;SDS011;10160;50.926;4.374;2022-12-05T17:40:36;54.50;;;26.83;;
19998;SDS011;10160;50.926;4.374;2022-12-05T17:43:02;54.80;;;27.43;;
19998;SDS011;10160;50.926;4.374;2022-12-05T17:45:28;60.57;;;28.77;;
19998;SDS011;10160;50.926;4.374;2022-12-05T17:47:55;58.10;;;28.57;;
19998;SDS011;10160;50.926;4.374;2022-12-05T17:50:21;58.73;;;28.63;;
19998;SDS011;10160;50.926;4.374;2022-12-05T17:52:49;67.17;;;31.10;;